createdAt,value
2019-04-16T00:01:26.532Z,20.13
2019-04-16T00:03:58.083Z,20.57
2019-04-16T00:06:35.659Z,24.23
2019-04-16T00:09:11.271Z,23.73
2019-04-16T00:11:42.837Z,20.40
2019-04-16T00:14:20.482Z,25.70
2019-04-16T00:16:50.491Z,20.40
2019-04-16T00:19:20.449Z,15.97
2019-04-16T00:22:04.020Z,19.67
2019-04-16T00:24:35.554Z,22.67
2019-04-16T00:27:05.622Z,21.27
2019-04-16T00:29:35.589Z,20.77
2019-04-16T00:32:09.177Z,19.33
2019-04-16T00:34:38.857Z,24.63
2019-04-16T00:37:08.843Z,20.63
2019-04-16T00:39:38.817Z,23.03
2019-04-16T00:42:08.931Z,22.00
2019-04-16T00:44:38.917Z,20.20
2019-04-16T00:47:08.918Z,25.67
2019-04-16T00:49:38.891Z,23.10
2019-04-16T00:52:08.888Z,21.13
2019-04-16T00:54:39.316Z,19.80
2019-04-16T00:57:10.551Z,16.07
2019-04-16T00:59:40.529Z,20.67
2019-04-16T01:02:10.607Z,18.43
2019-04-16T01:04:40.582Z,21.50
2019-04-16T01:07:10.526Z,16.60
2019-04-16T01:09:40.797Z,18.10
2019-04-16T01:12:10.737Z,17.60
2019-04-16T01:14:41.014Z,18.53
2019-04-16T01:17:10.960Z,17.27
2019-04-16T01:19:41.814Z,15.77
2019-04-16T01:22:15.733Z,14.23
2019-04-16T01:24:43.603Z,17.03
2019-04-16T01:27:15.305Z,22.03
2019-04-16T01:29:45.384Z,25.00
2019-04-16T01:32:33.134Z,21.67
2019-04-16T01:35:04.670Z,19.70
2019-04-16T01:37:36.173Z,19.73
2019-04-16T01:40:09.235Z,22.70
2019-04-16T01:42:39.229Z,18.43
2019-04-16T01:45:09.197Z,18.47
2019-04-16T01:47:39.130Z,17.77
2019-04-16T01:50:12.970Z,15.17
2019-04-16T01:52:40.838Z,21.57
2019-04-16T01:55:11.148Z,17.77
2019-04-16T01:57:41.040Z,15.90
2019-04-16T02:00:12.327Z,17.07
2019-04-16T02:02:43.468Z,14.70
2019-04-16T02:05:14.030Z,16.80
2019-04-16T02:07:44.152Z,13.87
2019-04-16T02:10:14.419Z,20.50
2019-04-16T02:12:44.556Z,15.27
2019-04-16T02:15:14.900Z,21.33
2019-04-16T02:17:44.833Z,15.87
2019-04-16T02:20:14.796Z,20.13
2019-04-16T02:22:45.265Z,18.77
2019-04-16T02:25:19.015Z,21.00
2019-04-16T02:27:47.405Z,17.43
2019-04-16T02:30:17.398Z,19.93
2019-04-16T02:32:47.416Z,20.67
2019-04-16T02:35:18.277Z,18.87
2019-04-16T02:37:48.233Z,16.93
2019-04-16T02:40:19.003Z,18.63
2019-04-16T02:42:49.261Z,18.43
2019-04-16T02:45:23.147Z,18.70
2019-04-16T02:47:50.979Z,17.53
2019-04-16T02:50:30.638Z,17.27
2019-04-16T02:52:58.533Z,17.47
2019-04-16T02:55:30.211Z,16.97
2019-04-16T02:58:02.359Z,18.87
2019-04-16T03:00:50.852Z,15.53
2019-04-16T03:03:24.923Z,16.43
2019-04-16T03:05:55.611Z,16.67
2019-04-16T03:08:25.582Z,16.67
2019-04-16T03:10:55.557Z,17.30
2019-04-16T03:13:26.325Z,19.70
2019-04-16T03:16:07.708Z,22.73
2019-04-16T03:18:39.356Z,19.97
2019-04-16T03:21:09.322Z,18.87
2019-04-16T03:23:39.369Z,19.90
2019-04-16T03:26:09.374Z,16.87
2019-04-16T03:28:39.342Z,17.03
2019-04-16T03:31:14.865Z,18.57
2019-04-16T03:33:48.610Z,24.73
2019-04-16T03:36:13.766Z,16.13
2019-04-16T03:38:43.757Z,18.83
2019-04-16T03:41:13.758Z,15.80
2019-04-16T03:43:43.728Z,16.70
2019-04-16T03:46:14.197Z,17.93
2019-04-16T03:48:44.400Z,24.50
2019-04-16T03:51:14.393Z,15.17
2019-04-16T03:53:46.449Z,17.60
2019-04-16T03:56:16.026Z,18.03
2019-04-16T03:58:45.996Z,17.70
2019-04-16T04:01:15.973Z,15.90
2019-04-16T04:03:45.961Z,18.83
2019-04-16T04:06:15.939Z,19.17
2019-04-16T04:08:48.296Z,20.10
2019-04-16T04:11:17.574Z,26.57
2019-04-16T04:13:50.053Z,28.60
2019-04-16T04:16:19.425Z,26.37
2019-04-16T04:18:49.403Z,32.40
2019-04-16T04:21:22.309Z,30.47
2019-04-16T04:23:51.071Z,32.43
2019-04-16T04:26:21.163Z,28.93
2019-04-16T04:28:51.523Z,37.50
2019-04-16T04:31:22.689Z,28.60
2019-04-16T04:33:52.766Z,31.10
2019-04-16T04:36:26.435Z,29.53
2019-04-16T04:38:54.442Z,31.53
2019-04-16T04:41:24.452Z,29.50
2019-04-16T04:43:54.432Z,29.53
2019-04-16T04:46:24.374Z,33.30
2019-04-16T04:48:55.611Z,31.47
2019-04-16T04:51:25.978Z,26.33
2019-04-16T04:53:55.952Z,22.87
2019-04-16T04:56:27.981Z,22.23
2019-04-16T04:58:57.587Z,22.10
2019-04-16T05:01:27.530Z,24.63
2019-04-16T05:04:02.047Z,22.43
2019-04-16T05:06:38.809Z,20.03
2019-04-16T05:09:08.778Z,24.50
2019-04-16T05:11:38.721Z,36.70
2019-04-16T05:14:08.710Z,25.10
2019-04-16T05:16:38.732Z,65.03
2019-04-16T05:19:13.626Z,36.43
2019-04-16T05:21:40.362Z,21.87
2019-04-16T05:24:10.338Z,50.87
2019-04-16T05:26:40.286Z,39.40
2019-04-16T05:29:17.514Z,205.17
2019-04-16T05:31:44.703Z,457.07
2019-04-16T05:34:17.635Z,277.17
2019-04-16T05:36:47.938Z,150.57
2019-04-16T05:39:18.142Z,112.27
2019-04-16T05:41:50.484Z,60.80
2019-04-16T05:44:19.898Z,49.47
2019-04-16T05:46:49.873Z,27.80
2019-04-16T05:49:24.636Z,30.30
2019-04-16T05:51:51.611Z,37.27
2019-04-16T05:54:23.161Z,29.80
2019-04-16T05:56:57.539Z,39.97
2019-04-16T05:59:27.514Z,29.00
2019-04-16T06:01:59.050Z,28.93
2019-04-16T06:04:29.045Z,31.00
2019-04-16T06:07:02.864Z,28.10
2019-04-16T06:09:34.014Z,28.07
2019-04-16T06:12:05.954Z,26.30
2019-04-16T06:14:37.599Z,27.33
2019-04-16T06:17:33.225Z,28.47
2019-04-16T06:20:19.021Z,31.43
2019-04-16T06:23:02.751Z,37.97
2019-04-16T06:25:31.658Z,36.83
2019-04-16T06:28:25.864Z,29.40
2019-04-16T06:31:10.210Z,36.03
2019-04-16T06:33:40.699Z,33.40
2019-04-16T06:36:24.342Z,33.50
2019-04-16T06:38:58.953Z,33.80
2019-04-16T06:41:41.424Z,31.33
2019-04-16T06:44:06.909Z,37.30
2019-04-16T06:46:41.288Z,32.87
2019-04-16T06:49:27.914Z,38.60
2019-04-16T06:52:16.049Z,57.30
2019-04-16T06:54:57.117Z,57.20
2019-04-16T06:57:47.007Z,76.30
2019-04-16T07:00:27.799Z,64.57
2019-04-16T07:03:15.888Z,33.53
2019-04-16T07:06:03.947Z,33.73
2019-04-16T07:08:38.177Z,34.63
2019-04-16T07:11:10.707Z,36.40
2019-04-16T07:13:42.238Z,33.00
2019-04-16T07:16:15.135Z,34.20
2019-04-16T07:19:03.693Z,34.03
2019-04-16T07:21:36.419Z,36.27
2019-04-16T07:24:12.498Z,35.23
2019-04-16T07:26:56.644Z,32.40
2019-04-16T07:29:31.666Z,50.13
2019-04-16T07:32:20.592Z,32.30
2019-04-16T07:35:21.959Z,30.97
2019-04-16T07:37:56.765Z,31.83
2019-04-16T07:40:59.509Z,33.50
2019-04-16T07:44:10.758Z,33.47
2019-04-16T07:47:12.420Z,29.63
2019-04-16T07:49:50.141Z,34.70
2019-04-16T07:52:27.695Z,26.67
2019-04-16T07:55:17.996Z,25.20
2019-04-16T07:58:07.026Z,27.27
2019-04-16T08:00:44.941Z,25.27
2019-04-16T08:03:15.039Z,26.57
2019-04-16T08:05:46.462Z,24.93
2019-04-16T08:08:16.740Z,26.23
2019-04-16T08:10:53.050Z,24.17
2019-04-16T08:13:23.824Z,22.37
2019-04-16T08:15:57.548Z,22.07
2019-04-16T08:18:53.211Z,20.87
2019-04-16T08:21:44.668Z,21.07
2019-04-16T08:24:16.371Z,37.03
2019-04-16T08:26:46.353Z,26.60
2019-04-16T08:29:34.041Z,26.60
2019-04-16T08:32:13.102Z,33.53
2019-04-16T08:34:44.413Z,21.87
2019-04-16T08:37:32.105Z,20.27
2019-04-16T08:40:20.047Z,25.60
2019-04-16T08:42:57.001Z,15.00
2019-04-16T08:45:26.434Z,15.53
2019-04-16T08:48:18.720Z,13.43
2019-04-16T08:51:05.777Z,14.80
2019-04-16T08:53:54.764Z,15.00
2019-04-16T08:56:24.745Z,13.80
2019-04-16T08:58:58.586Z,15.43
2019-04-16T09:01:45.842Z,18.73
2019-04-16T09:04:18.855Z,17.80
2019-04-16T09:06:48.843Z,13.33
2019-04-16T09:09:28.882Z,16.57
2019-04-16T09:12:07.741Z,19.63
2019-04-16T09:14:55.918Z,17.83
2019-04-16T09:17:29.114Z,18.90
2019-04-16T09:20:05.663Z,15.00
2019-04-16T09:22:48.281Z,14.53
2019-04-16T09:25:23.804Z,13.17
2019-04-16T09:28:23.806Z,15.40
2019-04-16T09:31:10.957Z,16.50
2019-04-16T09:34:10.040Z,11.07
2019-04-16T09:37:01.837Z,9.30
2019-04-16T09:40:16.506Z,13.73
2019-04-16T09:42:59.059Z,10.93
2019-04-16T09:45:51.968Z,26.17
2019-04-16T09:48:34.453Z,15.00
2019-04-16T09:51:21.513Z,13.87
2019-04-16T09:53:51.676Z,11.40
2019-04-16T09:56:30.004Z,17.07
2019-04-16T09:59:10.939Z,16.77
2019-04-16T10:01:45.500Z,13.07
2019-04-16T10:04:19.805Z,81.20
2019-04-16T10:06:49.963Z,11.77
2019-04-16T10:09:23.743Z,36.37
2019-04-16T10:12:15.240Z,17.37
2019-04-16T10:14:49.359Z,46.43
2019-04-16T10:17:28.414Z,12.00
2019-04-16T10:19:58.395Z,13.03
2019-04-16T10:22:36.244Z,12.47
2019-04-16T10:25:23.261Z,13.03
2019-04-16T10:27:54.860Z,25.10
2019-04-16T10:30:29.786Z,12.93
2019-04-16T10:33:02.196Z,12.53
2019-04-16T10:35:38.216Z,36.07
2019-04-16T10:38:31.973Z,19.77
2019-04-16T10:41:07.960Z,16.87
2019-04-16T10:43:44.723Z,16.10
2019-04-16T10:46:33.583Z,30.07
2019-04-16T10:49:30.670Z,10.00
2019-04-16T10:52:22.299Z,9.67
2019-04-16T10:55:12.935Z,9.40
2019-04-16T10:57:50.819Z,11.77
2019-04-16T11:00:46.206Z,12.77
2019-04-16T11:03:42.289Z,22.97
2019-04-16T11:06:17.107Z,9.57
2019-04-16T11:09:10.494Z,9.30
2019-04-16T11:11:43.533Z,10.97
2019-04-16T11:14:16.368Z,15.47
2019-04-16T11:17:05.973Z,11.27
2019-04-16T11:19:59.931Z,15.07
2019-04-16T11:22:28.852Z,11.93
2019-04-16T11:24:58.839Z,9.47
2019-04-16T11:27:49.815Z,10.00
2019-04-16T11:30:40.528Z,11.70
2019-04-16T11:33:29.565Z,8.67
2019-04-16T11:35:59.651Z,12.83
2019-04-16T11:38:47.808Z,12.13
2019-04-16T11:41:36.394Z,12.83
2019-04-16T11:44:24.903Z,13.53
2019-04-16T11:47:20.423Z,9.47
2019-04-16T11:49:53.513Z,9.57
2019-04-16T11:52:29.708Z,10.37
2019-04-16T11:55:02.892Z,10.27
2019-04-16T11:57:43.673Z,12.83
2019-04-16T12:00:36.631Z,8.53
2019-04-16T12:03:08.336Z,8.63
2019-04-16T12:05:51.840Z,25.67
2019-04-16T12:08:41.172Z,14.47
2019-04-16T12:11:43.760Z,12.90
2019-04-16T12:14:30.699Z,8.20
2019-04-16T12:17:17.675Z,11.50
2019-04-16T12:20:04.169Z,8.43
2019-04-16T12:23:01.906Z,14.10
2019-04-16T12:25:36.294Z,6.93
2019-04-16T12:28:31.472Z,11.67
2019-04-16T12:31:26.616Z,9.17
2019-04-16T12:34:07.717Z,6.93
2019-04-16T12:36:50.862Z,9.33
2019-04-16T12:39:24.724Z,5.83
2019-04-16T12:41:59.743Z,8.13
2019-04-16T12:44:48.363Z,10.00
2019-04-16T12:47:46.432Z,11.07
2019-04-16T12:50:49.407Z,8.37
2019-04-16T12:53:22.671Z,10.23
2019-04-16T12:56:12.512Z,9.30
2019-04-16T12:59:22.119Z,9.33
2019-04-16T13:02:24.095Z,12.13
2019-04-16T13:05:13.132Z,9.80
2019-04-16T13:07:50.316Z,12.13
2019-04-16T13:10:39.462Z,9.10
2019-04-16T13:13:16.976Z,9.53
2019-04-16T13:15:51.195Z,8.07
2019-04-16T13:18:46.403Z,13.57
2019-04-16T13:21:20.825Z,8.53
2019-04-16T13:24:01.464Z,10.17
2019-04-16T13:26:35.651Z,9.27
2019-04-16T13:29:07.301Z,10.97
2019-04-16T13:31:38.967Z,13.00
2019-04-16T13:34:18.345Z,12.80
2019-04-16T13:36:51.913Z,9.60
2019-04-16T13:39:26.800Z,14.93
2019-04-16T13:41:58.218Z,10.67
2019-04-16T13:44:46.535Z,11.30
2019-04-16T13:47:22.476Z,10.90
2019-04-16T13:49:54.085Z,13.37
2019-04-16T13:52:36.833Z,22.27
2019-04-16T13:55:18.062Z,12.43
2019-04-16T13:58:04.480Z,11.50
2019-04-16T14:00:37.141Z,11.70
2019-04-16T14:03:08.865Z,13.40
2019-04-16T14:05:42.691Z,13.90
2019-04-16T14:08:14.659Z,12.80
2019-04-16T14:10:44.691Z,12.77
2019-04-16T14:13:17.319Z,12.13
2019-04-16T14:15:47.274Z,8.13
2019-04-16T14:18:17.252Z,8.30
2019-04-16T14:20:47.256Z,8.43
2019-04-16T14:23:23.371Z,15.57
2019-04-16T14:25:53.392Z,19.90
2019-04-16T14:28:23.490Z,153.03
2019-04-16T14:30:53.511Z,14.93
2019-04-16T14:33:25.146Z,14.70
2019-04-16T14:35:55.132Z,10.27
2019-04-16T14:38:30.003Z,11.03
2019-04-16T14:40:59.964Z,9.47
2019-04-16T14:43:31.644Z,10.47
2019-04-16T14:46:01.873Z,13.93
2019-04-16T14:48:31.992Z,15.27
2019-04-16T14:51:02.561Z,13.83
2019-04-16T14:53:34.294Z,14.73
2019-04-16T14:56:06.451Z,10.37
2019-04-16T14:58:44.342Z,13.73
2019-04-16T15:01:20.132Z,13.57
2019-04-16T15:04:00.665Z,13.00
2019-04-16T15:06:41.354Z,12.80
2019-04-16T15:09:15.990Z,19.83
2019-04-16T15:12:07.444Z,87.10
2019-04-16T15:14:40.021Z,20.50
2019-04-16T15:17:14.566Z,10.90
2019-04-16T15:20:06.984Z,17.93
2019-04-16T15:22:38.524Z,13.60
2019-04-16T15:25:28.271Z,13.27
2019-04-16T15:28:05.852Z,34.60
2019-04-16T15:30:40.393Z,22.83
2019-04-16T15:33:21.244Z,16.80
2019-04-16T15:36:01.821Z,53.13
2019-04-16T15:38:39.667Z,82.23
2019-04-16T15:41:20.577Z,34.03
2019-04-16T15:44:08.683Z,73.40
2019-04-16T15:46:49.515Z,185.30
2019-04-16T15:49:24.154Z,50.60
2019-04-16T15:52:01.758Z,31.50
2019-04-16T15:54:42.122Z,15.10
2019-04-16T16:04:37.078Z,36.87
2019-04-16T16:06:23.399Z,31.17
2019-04-16T16:09:29.251Z,26.27
2019-04-16T16:11:58.713Z,121.97
2019-04-16T16:14:33.042Z,117.77
2019-04-16T16:17:04.187Z,48.90
2019-04-16T16:19:46.699Z,24.20
2019-04-16T16:23:32.835Z,15.90
2019-04-16T16:25:42.148Z,21.43
2019-04-16T16:31:40.380Z,21.50
2019-04-16T16:34:17.937Z,27.10
2019-04-16T16:36:48.450Z,16.33
2019-04-16T16:37:54.675Z,14.33
2019-04-16T16:39:24.883Z,14.13
2019-04-16T16:44:43.182Z,128.00
2019-04-16T16:47:32.852Z,64.53
2019-04-16T16:50:07.516Z,33.73
2019-04-16T16:53:07.171Z,33.37
2019-04-16T16:55:58.301Z,39.47
2019-04-16T16:58:47.165Z,49.80
2019-04-16T17:01:37.160Z,36.07
2019-04-16T17:04:15.935Z,27.30
2019-04-16T17:06:57.641Z,36.93
2019-04-16T17:09:33.477Z,19.23
2019-04-16T17:14:01.314Z,22.83
2019-04-16T17:14:55.879Z,29.57
2019-04-16T17:17:26.898Z,20.03
2019-04-16T17:19:58.265Z,12.23
2019-04-16T17:22:36.340Z,34.37
2019-04-16T17:25:10.501Z,53.57
2019-04-16T17:27:51.537Z,91.07
2019-04-16T17:30:19.070Z,25.20
2019-04-16T17:33:02.324Z,45.47
2019-04-16T17:46:00.869Z,62.93
2019-04-16T17:48:39.019Z,55.53
2019-04-16T17:51:12.580Z,46.37
2019-04-16T17:53:47.637Z,88.90
2019-04-16T17:56:26.700Z,120.23
2019-04-16T17:59:13.512Z,301.43
2019-04-16T18:02:05.452Z,188.43
2019-04-16T18:04:38.374Z,231.50
2019-04-16T18:07:28.125Z,168.40
2019-04-16T18:10:05.239Z,83.13
2019-04-16T18:12:39.561Z,39.43
2019-04-16T18:15:32.014Z,61.93
2019-04-16T18:18:09.449Z,167.67
2019-04-16T18:21:07.008Z,136.27
2019-04-16T18:23:45.576Z,126.50
2019-04-16T18:26:19.159Z,157.60
2019-04-16T18:29:04.265Z,137.07
2019-04-16T18:31:47.129Z,296.37
2019-04-16T18:34:23.586Z,237.07
2019-04-16T18:37:13.179Z,148.40
2019-04-16T18:39:48.888Z,128.30
2019-04-16T18:42:39.289Z,123.47
2019-04-16T18:45:15.893Z,150.23
2019-04-16T18:48:02.853Z,116.87
2019-04-16T18:50:28.177Z,132.70
2019-04-16T18:53:00.202Z,155.67
2019-04-16T18:55:31.054Z,211.07
2019-04-16T18:58:03.467Z,169.20
2019-04-16T19:00:43.895Z,183.53
2019-04-16T19:03:16.392Z,125.33
2019-04-16T19:05:47.388Z,125.40
2019-04-16T19:08:18.154Z,152.03
2019-04-16T19:10:49.871Z,201.60
2019-04-16T19:13:21.504Z,262.63
2019-04-16T19:15:54.182Z,180.97
2019-04-16T19:18:26.651Z,130.27
2019-04-16T19:20:57.303Z,176.77
2019-04-16T19:23:28.792Z,126.70
2019-04-16T19:25:59.408Z,401.70
2019-04-16T19:28:31.219Z,225.70
2019-04-16T19:31:05.324Z,219.33
2019-04-16T19:33:38.280Z,77.97
2019-04-16T19:36:08.377Z,100.73
2019-04-16T19:38:40.771Z,124.93
2019-04-16T19:41:14.117Z,123.80
2019-04-16T19:43:45.903Z,125.73
2019-04-16T19:46:16.895Z,138.77
2019-04-16T19:48:47.714Z,200.20
2019-04-16T19:51:20.631Z,118.03
2019-04-16T19:53:53.559Z,377.47
2019-04-16T19:56:24.998Z,140.87
2019-04-16T19:59:02.746Z,193.47
2019-04-16T20:01:33.036Z,234.87
2019-04-16T20:04:09.721Z,215.93
2019-04-16T20:06:39.115Z,172.77
2019-04-16T20:09:10.317Z,148.03
2019-04-16T20:11:41.296Z,114.70
2019-04-16T20:14:12.519Z,131.83
2019-04-16T20:16:44.903Z,178.80
2019-04-16T20:19:16.247Z,181.73
2019-04-16T20:21:49.140Z,184.17
2019-04-16T20:24:21.509Z,145.70
2019-04-16T20:26:55.535Z,118.43
2019-04-16T20:29:29.517Z,71.70
2019-04-16T20:32:01.045Z,75.67
2019-04-16T20:34:34.760Z,80.90
2019-04-16T20:37:06.394Z,70.17
2019-04-16T20:39:40.919Z,64.10
2019-04-16T20:42:12.558Z,81.77
2019-04-16T20:44:47.922Z,64.97
2019-04-16T20:47:20.028Z,70.13
2019-04-16T20:49:52.445Z,63.67
2019-04-16T20:52:24.886Z,55.73
2019-04-16T20:54:59.370Z,78.17
2019-04-16T20:57:33.686Z,64.60
2019-04-16T21:00:11.036Z,65.20
2019-04-16T21:02:40.160Z,55.07
2019-04-16T21:05:22.017Z,50.93
2019-04-16T21:07:43.920Z,37.83
2019-04-16T21:10:13.707Z,36.27
2019-04-16T21:12:45.326Z,34.43
2019-04-16T21:15:15.461Z,35.40
2019-04-16T21:17:45.408Z,34.20
2019-04-16T21:20:19.155Z,34.67
2019-04-16T21:22:47.132Z,38.13
2019-04-16T21:25:17.122Z,35.60
2019-04-16T21:27:51.571Z,31.97
2019-04-16T21:30:21.590Z,39.33
2019-04-16T21:32:53.148Z,43.83
2019-04-16T21:35:31.964Z,44.70
2019-04-16T21:38:03.981Z,52.03
2019-04-16T21:40:33.995Z,51.40
2019-04-16T21:43:07.741Z,64.77
2019-04-16T21:45:35.754Z,66.67
2019-04-16T21:48:05.905Z,63.50
2019-04-16T21:50:35.913Z,64.43
2019-04-16T21:53:05.885Z,67.30
2019-04-16T21:55:36.200Z,56.27
2019-04-16T21:58:06.750Z,58.97
2019-04-16T22:00:38.430Z,57.97
2019-04-16T22:03:18.982Z,49.73
2019-04-16T22:05:49.064Z,56.27
2019-04-16T22:08:19.088Z,58.60
2019-04-16T22:10:49.036Z,50.13
2019-04-16T22:13:20.060Z,50.93
2019-04-16T22:15:50.198Z,53.37
2019-04-16T22:18:20.176Z,42.77
2019-04-16T22:20:50.112Z,48.73
2019-04-16T22:23:20.114Z,48.43
2019-04-16T22:25:50.091Z,51.27
2019-04-16T22:28:20.091Z,72.07
2019-04-16T22:30:51.485Z,62.57
2019-04-16T22:33:21.714Z,62.47
2019-04-16T22:35:51.692Z,57.37
2019-04-16T22:38:21.668Z,46.53
2019-04-16T22:41:02.828Z,45.67
2019-04-16T22:43:46.675Z,45.33
2019-04-16T22:46:18.219Z,53.23
2019-04-16T22:48:55.390Z,38.30
2019-04-16T22:51:25.973Z,36.30
2019-04-16T22:53:56.235Z,32.47
2019-04-16T22:56:31.058Z,30.30
2019-04-16T22:59:01.040Z,26.07
2019-04-16T23:01:45.697Z,27.13
2019-04-16T23:04:15.859Z,30.03
2019-04-16T23:06:45.930Z,30.33
2019-04-16T23:09:17.182Z,29.00
2019-04-16T23:11:48.019Z,35.13
2019-04-16T23:14:18.087Z,27.53
2019-04-16T23:16:48.176Z,30.47
2019-04-16T23:19:20.558Z,27.97
2019-04-16T23:21:50.058Z,32.63
2019-04-16T23:24:23.017Z,31.33
2019-04-16T23:26:52.016Z,36.80
2019-04-16T23:29:22.106Z,29.77
2019-04-16T23:31:55.068Z,31.87
2019-04-16T23:34:24.004Z,29.73
2019-04-16T23:36:54.081Z,26.43
2019-04-16T23:39:24.177Z,25.50
2019-04-16T23:41:54.153Z,32.10
2019-04-16T23:44:31.818Z,25.13
2019-04-16T23:47:03.365Z,22.20
2019-04-16T23:49:40.894Z,29.13
2019-04-16T23:52:12.435Z,27.97
2019-04-16T23:54:47.018Z,26.73
2019-04-16T23:57:21.594Z,34.93
